sensor_id;sensor_type;location;lat;lon;timestamp;pressure;altitude;pressure_sealevel;temperature;humidity
30463;BME280;17256;43.618;25.336;2023-06-26T00:02:01;100096.03;;;19.29;100.00
30463;BME280;17256;43.618;25.336;2023-06-26T00:04:34;100053.22;;;18.93;100.00
30463;BME280;17256;43.618;25.336;2023-06-26T00:07:04;99921.81;;;18.07;100.00
30463;BME280;17256;43.618;25.336;2023-06-26T00:09:32;99905.69;;;18.04;100.00
30463;BME280;17256;43.618;25.336;2023-06-26T00:12:03;100100.16;;;19.22;100.00
30463;BME280;17256;43.618;25.336;2023-06-26T00:14:29;100103.53;;;19.29;100.00
30463;BME280;17256;43.618;25.336;2023-06-26T00:16:57;100120.91;;;19.46;100.00
30463;BME280;17256;43.618;25.336;2023-06-26T00:19:23;100143.91;;;19.69;100.00
30463;BME280;17256;43.618;25.336;2023-06-26T00:21:49;100306.94;;;20.71;100.00
30463;BME280;17256;43.618;25.336;2023-06-26T00:24:17;100119.66;;;19.64;100.00
30463;BME280;17256;43.618;25.336;2023-06-26T00:26:47;100044.16;;;19.13;100.00
30463;BME280;17256;43.618;25.336;2023-06-26T00:29:13;100064.53;;;19.24;100.00
30463;BME280;17256;43.618;25.336;2023-06-26T00:31:43;100108.81;;;19.67;100.00
30463;BME280;17256;43.618;25.336;2023-06-26T00:34:10;99962.91;;;18.69;100.00
30463;BME280;17256;43.618;25.336;2023-06-26T00:36:36;100076.63;;;19.45;100.00
30463;BME280;17256;43.618;25.336;2023-06-26T00:39:05;100049.25;;;19.31;100.00
30463;BME280;17256;43.618;25.336;2023-06-26T00:41:34;100035.88;;;19.28;100.00
30463;BME280;17256;43.618;25.336;2023-06-26T00:44:03;100202.47;;;20.36;100.00
30463;BME280;17256;43.618;25.336;2023-06-26T00:46:43;99975.72;;;18.70;100.00
30463;BME280;17256;43.618;25.336;2023-06-26T00:49:26;100313.66;;;20.80;100.00
30463;BME280;17256;43.618;25.336;2023-06-26T00:52:10;100118.81;;;19.63;100.00
30463;BME280;17256;43.618;25.336;2023-06-26T00:54:46;100126.34;;;19.68;100.00
30463;BME280;17256;43.618;25.336;2023-06-26T00:57:20;100146.19;;;19.82;100.00
30463;BME280;17256;43.618;25.336;2023-06-26T00:59:48;100129.06;;;19.58;100.00
30463;BME280;17256;43.618;25.336;2023-06-26T01:02:16;100157.69;;;19.95;100.00
30463;BME280;17256;43.618;25.336;2023-06-26T01:04:50;99968.25;;;18.81;100.00
30463;BME280;17256;43.618;25.336;2023-06-26T01:07:18;100060.22;;;19.48;100.00
30463;BME280;17256;43.618;25.336;2023-06-26T01:09:49;99906.59;;;18.52;100.00
30463;BME280;17256;43.618;25.336;2023-06-26T01:12:18;100304.78;;;20.83;100.00
30463;BME280;17256;43.618;25.336;2023-06-26T01:14:48;100160.19;;;19.92;100.00
30463;BME280;17256;43.618;25.336;2023-06-26T01:17:19;100057.34;;;19.33;100.00
30463;BME280;17256;43.618;25.336;2023-06-26T01:19:50;100235.16;;;20.46;100.00
30463;BME280;17256;43.618;25.336;2023-06-26T01:22:37;100052.84;;;19.22;100.00
30463;BME280;17256;43.618;25.336;2023-06-26T01:28:20;100214.97;;;20.28;100.00
30463;BME280;17256;43.618;25.336;2023-06-26T01:30:50;100291.88;;;20.72;100.00
30463;BME280;17256;43.618;25.336;2023-06-26T01:33:20;100054.34;;;19.45;100.00
30463;BME280;17256;43.618;25.336;2023-06-26T01:35:55;100048.25;;;19.48;100.00
30463;BME280;17256;43.618;25.336;2023-06-26T01:38:22;99939.13;;;18.88;100.00
30463;BME280;17256;43.618;25.336;2023-06-26T01:41:00;100170.97;;;20.36;100.00
30463;BME280;17256;43.618;25.336;2023-06-26T01:49:20;100304.00;;;21.23;100.00
30463;BME280;17256;43.618;25.336;2023-06-26T01:52:21;100307.06;;;21.22;100.00
30463;BME280;17256;43.618;25.336;2023-06-26T01:55:40;99985.56;;;19.35;100.00
30463;BME280;17256;43.618;25.336;2023-06-26T01:58:40;100069.34;;;19.96;100.00
30463;BME280;17256;43.618;25.336;2023-06-26T02:01:35;100174.13;;;20.70;100.00
30463;BME280;17256;43.618;25.336;2023-06-26T02:04:05;100092.22;;;19.98;100.00
30463;BME280;17256;43.618;25.336;2023-06-26T02:07:03;100147.03;;;20.55;100.00
30463;BME280;17256;43.618;25.336;2023-06-26T02:09:54;100197.88;;;20.93;100.00
30463;BME280;17256;43.618;25.336;2023-06-26T02:12:20;100305.19;;;21.47;100.00
30463;BME280;17256;43.618;25.336;2023-06-26T02:14:50;100295.69;;;21.54;100.00
30463;BME280;17256;43.618;25.336;2023-06-26T02:17:22;100048.44;;;19.98;100.00
30463;BME280;17256;43.618;25.336;2023-06-26T02:19:56;100153.19;;;20.62;100.00
30463;BME280;17256;43.618;25.336;2023-06-26T02:22:27;100167.94;;;20.52;100.00
30463;BME280;17256;43.618;25.336;2023-06-26T02:25:00;99936.78;;;19.27;100.00
30463;BME280;17256;43.618;25.336;2023-06-26T02:27:58;100297.06;;;21.46;100.00
30463;BME280;17256;43.618;25.336;2023-06-26T02:30:25;100102.03;;;20.31;100.00
30463;BME280;17256;43.618;25.336;2023-06-26T02:33:07;99901.13;;;19.19;100.00
30463;BME280;17256;43.618;25.336;2023-06-26T02:35:45;99891.66;;;19.15;100.00
30463;BME280;17256;43.618;25.336;2023-06-26T02:38:19;100127.25;;;20.62;100.00
30463;BME280;17256;43.618;25.336;2023-06-26T02:41:04;100261.59;;;21.31;100.00
30463;BME280;17256;43.618;25.336;2023-06-26T02:43:52;99945.47;;;19.36;100.00
30463;BME280;17256;43.618;25.336;2023-06-26T02:46:32;100137.78;;;20.39;100.00
30463;BME280;17256;43.618;25.336;2023-06-26T02:49:07;100003.44;;;19.54;100.00
30463;BME280;17256;43.618;25.336;2023-06-26T02:51:58;100067.13;;;19.93;100.00
30463;BME280;17256;43.618;25.336;2023-06-26T02:54:31;99989.53;;;19.54;100.00
30463;BME280;17256;43.618;25.336;2023-06-26T02:57:25;99927.84;;;19.15;100.00
30463;BME280;17256;43.618;25.336;2023-06-26T03:00:23;100000.72;;;19.64;100.00
30463;BME280;17256;43.618;25.336;2023-06-26T03:03:28;99963.00;;;19.36;100.00
30463;BME280;17256;43.618;25.336;2023-06-26T03:09:53;99959.50;;;19.04;100.00
30463;BME280;17256;43.618;25.336;2023-06-26T03:12:47;100293.34;;;21.00;100.00
30463;BME280;17256;43.618;25.336;2023-06-26T03:15:20;100092.75;;;19.90;100.00
30463;BME280;17256;43.618;25.336;2023-06-26T03:17:49;100138.28;;;20.31;100.00
30463;BME280;17256;43.618;25.336;2023-06-26T03:20:24;100022.47;;;19.73;100.00
30463;BME280;17256;43.618;25.336;2023-06-26T03:23:01;100115.13;;;20.25;100.00
30463;BME280;17256;43.618;25.336;2023-06-26T03:25:55;100264.66;;;21.30;100.00
30463;BME280;17256;43.618;25.336;2023-06-26T03:33:09;100284.22;;;21.55;100.00
30463;BME280;17256;43.618;25.336;2023-06-26T03:35:46;99945.41;;;19.26;100.00
30463;BME280;17256;43.618;25.336;2023-06-26T03:38:28;100004.91;;;19.72;100.00
30463;BME280;17256;43.618;25.336;2023-06-26T03:41:20;100062.72;;;20.17;100.00
30463;BME280;17256;43.618;25.336;2023-06-26T03:44:08;100074.69;;;20.18;100.00
30463;BME280;17256;43.618;25.336;2023-06-26T03:47:13;100295.97;;;21.57;100.00
30463;BME280;17256;43.618;25.336;2023-06-26T03:50:06;99960.88;;;19.59;100.00
30463;BME280;17256;43.618;25.336;2023-06-26T03:53:06;100282.81;;;21.83;100.00
30463;BME280;17256;43.618;25.336;2023-06-26T03:59:09;100217.44;;;21.69;100.00
30463;BME280;17256;43.618;25.336;2023-06-26T04:02:02;100154.38;;;21.32;100.00
30463;BME280;17256;43.618;25.336;2023-06-26T04:05:13;100081.50;;;20.83;100.00
30463;BME280;17256;43.618;25.336;2023-06-26T04:08:17;99906.03;;;20.05;100.00
30463;BME280;17256;43.618;25.336;2023-06-26T04:12:03;100283.22;;;22.46;100.00
30463;BME280;17256;43.618;25.336;2023-06-26T04:14:57;100299.75;;;22.48;100.00
30463;BME280;17256;43.618;25.336;2023-06-26T04:21:25;100235.81;;;22.10;100.00
30463;BME280;17256;43.618;25.336;2023-06-26T04:24:30;100299.97;;;22.61;100.00
30463;BME280;17256;43.618;25.336;2023-06-26T04:28:28;100295.06;;;22.33;100.00
30463;BME280;17256;43.618;25.336;2023-06-26T04:32:18;100022.91;;;20.83;100.00
30463;BME280;17256;43.618;25.336;2023-06-26T04:36:03;100060.81;;;20.99;100.00
30463;BME280;17256;43.618;25.336;2023-06-26T04:38:48;100167.94;;;21.74;100.00
30463;BME280;17256;43.618;25.336;2023-06-26T04:41:45;100144.50;;;21.55;100.00
30463;BME280;17256;43.618;25.336;2023-06-26T04:44:43;100297.25;;;22.41;100.00
30463;BME280;17256;43.618;25.336;2023-06-26T04:47:29;100302.81;;;22.51;100.00
30463;BME280;17256;43.618;25.336;2023-06-26T04:50:07;99961.25;;;20.13;100.00
30463;BME280;17256;43.618;25.336;2023-06-26T04:53:18;100165.50;;;21.42;100.00
30463;BME280;17256;43.618;25.336;2023-06-26T04:56:05;100152.63;;;21.62;100.00
30463;BME280;17256;43.618;25.336;2023-06-26T04:58:35;100066.06;;;21.31;100.00
30463;BME280;17256;43.618;25.336;2023-06-26T05:01:38;100296.38;;;23.10;100.00
30463;BME280;17256;43.618;25.336;2023-06-26T05:07:43;100304.66;;;23.30;100.00
30463;BME280;17256;43.618;25.336;2023-06-26T05:10:44;99936.03;;;21.00;100.00
30463;BME280;17256;43.618;25.336;2023-06-26T05:13:19;100312.44;;;23.39;100.00
30463;BME280;17256;43.618;25.336;2023-06-26T05:15:46;100291.66;;;23.45;100.00
30463;BME280;17256;43.618;25.336;2023-06-26T05:18:24;100130.53;;;22.35;100.00
30463;BME280;17256;43.618;25.336;2023-06-26T05:21:32;100027.69;;;21.67;100.00
30463;BME280;17256;43.618;25.336;2023-06-26T05:24:08;100122.44;;;22.72;100.00
30463;BME280;17256;43.618;25.336;2023-06-26T05:27:17;99979.69;;;21.99;100.00
30463;BME280;17256;43.618;25.336;2023-06-26T05:30:37;100008.16;;;22.80;100.00
30463;BME280;17256;43.618;25.336;2023-06-26T05:33:23;100020.38;;;22.31;100.00
30463;BME280;17256;43.618;25.336;2023-06-26T05:36:28;100337.63;;;24.41;100.00
30463;BME280;17256;43.618;25.336;2023-06-26T05:53:32;100341.97;;;24.76;100.00
30463;BME280;17256;43.618;25.336;2023-06-26T06:02:00;100350.59;;;24.37;100.00
30463;BME280;17256;43.618;25.336;2023-06-26T06:04:26;100207.13;;;23.67;100.00
30463;BME280;17256;43.618;25.336;2023-06-26T06:06:52;100136.78;;;23.34;100.00
30463;BME280;17256;43.618;25.336;2023-06-26T06:09:19;100164.56;;;23.30;100.00
30463;BME280;17256;43.618;25.336;2023-06-26T06:11:44;100181.63;;;23.00;100.00
30463;BME280;17256;43.618;25.336;2023-06-26T06:14:10;100321.41;;;23.75;100.00
30463;BME280;17256;43.618;25.336;2023-06-26T06:16:38;99986.13;;;22.05;100.00
30463;BME280;17256;43.618;25.336;2023-06-26T06:19:18;99983.44;;;22.29;100.00
30463;BME280;17256;43.618;25.336;2023-06-26T06:25:55;100023.59;;;22.82;100.00
30463;BME280;17256;43.618;25.336;2023-06-26T06:29:07;100196.19;;;23.36;100.00
30463;BME280;17256;43.618;25.336;2023-06-26T06:31:54;100357.41;;;24.25;100.00
30463;BME280;17256;43.618;25.336;2023-06-26T06:34:21;100198.09;;;23.41;100.00
30463;BME280;17256;43.618;25.336;2023-06-26T06:37:31;100312.69;;;24.10;100.00
30463;BME280;17256;43.618;25.336;2023-06-26T06:39:58;100136.31;;;22.93;100.00
30463;BME280;17256;43.618;25.336;2023-06-26T06:42:39;100290.69;;;23.93;100.00
30463;BME280;17256;43.618;25.336;2023-06-26T06:45:22;100031.00;;;22.63;100.00
30463;BME280;17256;43.618;25.336;2023-06-26T06:47:52;100015.66;;;22.60;100.00
30463;BME280;17256;43.618;25.336;2023-06-26T06:50:18;100134.13;;;23.48;100.00
30463;BME280;17256;43.618;25.336;2023-06-26T06:52:44;100094.63;;;23.20;100.00
30463;BME280;17256;43.618;25.336;2023-06-26T06:55:17;100242.78;;;24.14;100.00
30463;BME280;17256;43.618;25.336;2023-06-26T06:57:44;100243.41;;;24.35;100.00
30463;BME280;17256;43.618;25.336;2023-06-26T07:00:13;100015.44;;;22.86;100.00
30463;BME280;17256;43.618;25.336;2023-06-26T07:02:46;100236.44;;;24.32;100.00
30463;BME280;17256;43.618;25.336;2023-06-26T07:05:12;100091.59;;;23.41;100.00
30463;BME280;17256;43.618;25.336;2023-06-26T07:07:38;100151.19;;;23.80;100.00
30463;BME280;17256;43.618;25.336;2023-06-26T07:10:12;100126.97;;;23.66;100.00
30463;BME280;17256;43.618;25.336;2023-06-26T07:12:39;100225.66;;;24.15;100.00
30463;BME280;17256;43.618;25.336;2023-06-26T07:15:07;100077.38;;;23.08;100.00
30463;BME280;17256;43.618;25.336;2023-06-26T07:17:41;100066.66;;;23.15;100.00
30463;BME280;17256;43.618;25.336;2023-06-26T07:20:10;100143.91;;;23.50;100.00
30463;BME280;17256;43.618;25.336;2023-06-26T07:23:08;100021.47;;;22.64;100.00
30463;BME280;17256;43.618;25.336;2023-06-26T07:26:22;100242.75;;;24.43;100.00
30463;BME280;17256;43.618;25.336;2023-06-26T07:29:11;100362.47;;;25.43;100.00
30463;BME280;17256;43.618;25.336;2023-06-26T07:33:30;100369.59;;;25.73;100.00
30463;BME280;17256;43.618;25.336;2023-06-26T07:37:24;100242.81;;;24.99;100.00
30463;BME280;17256;43.618;25.336;2023-06-26T07:41:24;100369.91;;;25.90;100.00
30463;BME280;17256;43.618;25.336;2023-06-26T07:43:59;100179.59;;;24.83;100.00
30463;BME280;17256;43.618;25.336;2023-06-26T07:49:49;100179.41;;;24.93;100.00
30463;BME280;17256;43.618;25.336;2023-06-26T07:52:42;100251.69;;;25.44;100.00
30463;BME280;17256;43.618;25.336;2023-06-26T07:55:34;100263.03;;;25.71;100.00
30463;BME280;17256;43.618;25.336;2023-06-26T07:58:01;100233.25;;;25.52;100.00
30463;BME280;17256;43.618;25.336;2023-06-26T08:00:27;100246.72;;;25.55;100.00
30463;BME280;17256;43.618;25.336;2023-06-26T08:02:52;100203.13;;;25.06;100.00
30463;BME280;17256;43.618;25.336;2023-06-26T08:05:18;100196.16;;;25.36;100.00
30463;BME280;17256;43.618;25.336;2023-06-26T08:07:49;100274.03;;;25.87;100.00
30463;BME280;17256;43.618;25.336;2023-06-26T08:10:14;100262.47;;;26.02;100.00
30463;BME280;17256;43.618;25.336;2023-06-26T08:13:22;100387.84;;;27.01;100.00
30463;BME280;17256;43.618;25.336;2023-06-26T08:15:47;100296.13;;;26.40;100.00
30463;BME280;17256;43.618;25.336;2023-06-26T08:18:36;100386.59;;;27.07;100.00
30463;BME280;17256;43.618;25.336;2023-06-26T08:21:02;100213.53;;;26.03;100.00
30463;BME280;17256;43.618;25.336;2023-06-26T08:23:27;100210.28;;;26.10;99.50
30463;BME280;17256;43.618;25.336;2023-06-26T08:25:53;100230.50;;;26.12;100.00
30463;BME280;17256;43.618;25.336;2023-06-26T08:28:19;100195.91;;;26.11;100.00
30463;BME280;17256;43.618;25.336;2023-06-26T08:30:44;100228.44;;;26.58;97.83
30463;BME280;17256;43.618;25.336;2023-06-26T08:33:10;100259.19;;;26.82;91.94
30463;BME280;17256;43.618;25.336;2023-06-26T08:35:37;100215.31;;;26.90;98.55
30463;BME280;17256;43.618;25.336;2023-06-26T08:38:03;100251.56;;;27.19;92.83
30463;BME280;17256;43.618;25.336;2023-06-26T08:40:29;100258.13;;;27.50;95.13
30463;BME280;17256;43.618;25.336;2023-06-26T08:42:55;100284.41;;;28.04;90.97
30463;BME280;17256;43.618;25.336;2023-06-26T08:45:21;100169.75;;;27.86;89.16
30463;BME280;17256;43.618;25.336;2023-06-26T08:47:48;100241.78;;;28.54;83.47
30463;BME280;17256;43.618;25.336;2023-06-26T08:50:17;100278.75;;;28.84;78.91
30463;BME280;17256;43.618;25.336;2023-06-26T08:55:53;100267.75;;;28.73;86.50
30463;BME280;17256;43.618;25.336;2023-06-26T08:58:19;100215.47;;;28.28;84.87
30463;BME280;17256;43.618;25.336;2023-06-26T09:00:45;100163.53;;;27.67;84.07
30463;BME280;17256;43.618;25.336;2023-06-26T09:03:12;100357.72;;;29.28;87.25
30463;BME280;17256;43.618;25.336;2023-06-26T09:05:38;100330.09;;;29.42;85.58
30463;BME280;17256;43.618;25.336;2023-06-26T09:08:04;100154.72;;;28.56;74.94
30463;BME280;17256;43.618;25.336;2023-06-26T09:10:29;100342.91;;;29.92;80.81
30463;BME280;17256;43.618;25.336;2023-06-26T09:12:56;100371.41;;;30.04;79.85
30463;BME280;17256;43.618;25.336;2023-06-26T09:15:26;100287.31;;;29.70;81.54
30463;BME280;17256;43.618;25.336;2023-06-26T09:17:57;100232.09;;;29.12;79.26
30463;BME280;17256;43.618;25.336;2023-06-26T09:20:27;100358.59;;;29.81;81.34
30463;BME280;17256;43.618;25.336;2023-06-26T09:22:54;100227.16;;;28.52;79.49
30463;BME280;17256;43.618;25.336;2023-06-26T09:25:21;100279.84;;;28.57;81.06
30463;BME280;17256;43.618;25.336;2023-06-26T09:27:48;100131.16;;;27.42;82.09
30463;BME280;17256;43.618;25.336;2023-06-26T09:30:16;100220.94;;;27.26;81.74
30463;BME280;17256;43.618;25.336;2023-06-26T09:32:44;100267.00;;;27.21;84.41
30463;BME280;17256;43.618;25.336;2023-06-26T09:35:10;100078.94;;;26.19;83.75
30463;BME280;17256;43.618;25.336;2023-06-26T09:37:36;100246.22;;;28.07;83.54
30463;BME280;17256;43.618;25.336;2023-06-26T09:43:24;100315.25;;;28.63;83.38
30463;BME280;17256;43.618;25.336;2023-06-26T09:45:51;100298.00;;;28.73;81.29
30463;BME280;17256;43.618;25.336;2023-06-26T09:48:16;100263.34;;;28.50;79.74
30463;BME280;17256;43.618;25.336;2023-06-26T09:50:42;100192.75;;;27.71;80.30
30463;BME280;17256;43.618;25.336;2023-06-26T09:53:09;100325.97;;;28.83;80.98
30463;BME280;17256;43.618;25.336;2023-06-26T09:55:36;100237.31;;;28.53;82.77
30463;BME280;17256;43.618;25.336;2023-06-26T09:58:06;100278.28;;;28.42;85.19
30463;BME280;17256;43.618;25.336;2023-06-26T10:00:32;100289.91;;;28.09;83.25
30463;BME280;17256;43.618;25.336;2023-06-26T10:03:01;100301.94;;;27.93;87.01
30463;BME280;17256;43.618;25.336;2023-06-26T10:05:27;100200.69;;;27.69;84.12
30463;BME280;17256;43.618;25.336;2023-06-26T10:07:53;100209.16;;;27.46;84.03
30463;BME280;17256;43.618;25.336;2023-06-26T10:10:21;100266.78;;;27.32;88.45
30463;BME280;17256;43.618;25.336;2023-06-26T10:12:49;100286.59;;;27.40;89.65
30463;BME280;17256;43.618;25.336;2023-06-26T10:15:18;100323.72;;;27.20;92.97
30463;BME280;17256;43.618;25.336;2023-06-26T10:18:29;100263.88;;;27.23;96.63
30463;BME280;17256;43.618;25.336;2023-06-26T10:20:57;100305.78;;;27.74;90.17
30463;BME280;17256;43.618;25.336;2023-06-26T10:23:24;100150.56;;;27.12;92.14
30463;BME280;17256;43.618;25.336;2023-06-26T10:25:52;100345.94;;;28.47;92.87
30463;BME280;17256;43.618;25.336;2023-06-26T10:28:20;100224.78;;;27.75;89.52
30463;BME280;17256;43.618;25.336;2023-06-26T10:30:50;100244.50;;;27.97;94.63
30463;BME280;17256;43.618;25.336;2023-06-26T10:33:17;100341.78;;;28.44;96.16
30463;BME280;17256;43.618;25.336;2023-06-26T10:35:44;100164.13;;;27.10;95.64
30463;BME280;17256;43.618;25.336;2023-06-26T10:38:10;100251.34;;;27.74;95.52
30463;BME280;17256;43.618;25.336;2023-06-26T10:40:54;100079.38;;;26.62;89.99
30463;BME280;17256;43.618;25.336;2023-06-26T10:51:18;100263.94;;;27.68;85.76
30463;BME280;17256;43.618;25.336;2023-06-26T10:53:53;100323.75;;;28.63;91.19
30463;BME280;17256;43.618;25.336;2023-06-26T10:56:18;100260.19;;;28.12;87.47
30463;BME280;17256;43.618;25.336;2023-06-26T10:58:44;100283.25;;;28.76;94.88
30463;BME280;17256;43.618;25.336;2023-06-26T11:03:39;100259.03;;;29.18;78.66
30463;BME280;17256;43.618;25.336;2023-06-26T11:06:09;100267.22;;;29.28;77.35
30463;BME280;17256;43.618;25.336;2023-06-26T11:09:00;100329.47;;;29.63;82.02
30463;BME280;17256;43.618;25.336;2023-06-26T11:14:24;100222.13;;;28.40;87.05
30463;BME280;17256;43.618;25.336;2023-06-26T11:16:50;100248.38;;;28.32;88.98
30463;BME280;17256;43.618;25.336;2023-06-26T11:19:20;100171.25;;;27.08;91.49
30463;BME280;17256;43.618;25.336;2023-06-26T11:21:46;100176.16;;;27.24;96.53
30463;BME280;17256;43.618;25.336;2023-06-26T11:24:13;100205.00;;;27.44;94.55
30463;BME280;17256;43.618;25.336;2023-06-26T11:26:43;100350.75;;;27.35;94.26
30463;BME280;17256;43.618;25.336;2023-06-26T11:29:10;100179.50;;;25.72;99.42
30463;BME280;17256;43.618;25.336;2023-06-26T11:31:47;100147.69;;;25.11;99.56
30463;BME280;17256;43.618;25.336;2023-06-26T11:34:13;100141.88;;;25.22;100.00
30463;BME280;17256;43.618;25.336;2023-06-26T11:37:00;100149.97;;;24.72;100.00
30463;BME280;17256;43.618;25.336;2023-06-26T11:39:55;100149.91;;;24.58;100.00
30463;BME280;17256;43.618;25.336;2023-06-26T11:42:36;100006.81;;;23.54;100.00
30463;BME280;17256;43.618;25.336;2023-06-26T11:45:49;100362.91;;;25.88;100.00
30463;BME280;17256;43.618;25.336;2023-06-26T11:49:58;100359.41;;;25.77;100.00
30463;BME280;17256;43.618;25.336;2023-06-26T11:54:10;100363.91;;;25.59;100.00
30463;BME280;17256;43.618;25.336;2023-06-26T11:56:55;100196.25;;;24.37;100.00
30463;BME280;17256;43.618;25.336;2023-06-26T12:09:45;100067.50;;;23.16;100.00
30463;BME280;17256;43.618;25.336;2023-06-26T12:12:17;100203.38;;;24.00;100.00
30463;BME280;17256;43.618;25.336;2023-06-26T12:14:53;100255.22;;;24.56;100.00
30463;BME280;17256;43.618;25.336;2023-06-26T12:20:43;100181.47;;;24.26;100.00
30463;BME280;17256;43.618;25.336;2023-06-26T12:23:40;100344.13;;;25.27;100.00
30463;BME280;17256;43.618;25.336;2023-06-26T12:26:21;100079.22;;;23.71;100.00
30463;BME280;17256;43.618;25.336;2023-06-26T12:29:14;100079.31;;;23.66;100.00
30463;BME280;17256;43.618;25.336;2023-06-26T12:32:21;100344.75;;;25.42;100.00
30463;BME280;17256;43.618;25.336;2023-06-26T12:44:31;100102.94;;;24.64;100.00
30463;BME280;17256;43.618;25.336;2023-06-26T12:47:04;100219.28;;;25.33;100.00
30463;BME280;17256;43.618;25.336;2023-06-26T12:49:49;100222.72;;;25.76;100.00
30463;BME280;17256;43.618;25.336;2023-06-26T12:52:31;100259.81;;;26.65;100.00
30463;BME280;17256;43.618;25.336;2023-06-26T12:55:36;100164.13;;;26.74;100.00
30463;BME280;17256;43.618;25.336;2023-06-26T12:58:01;100202.91;;;27.27;100.00
30463;BME280;17256;43.618;25.336;2023-06-26T13:00:27;100278.66;;;27.87;100.00
30463;BME280;17256;43.618;25.336;2023-06-26T13:02:53;100238.28;;;27.55;90.16
30463;BME280;17256;43.618;25.336;2023-06-26T13:05:18;100223.84;;;26.98;91.63
30463;BME280;17256;43.618;25.336;2023-06-26T13:07:44;100212.97;;;26.70;100.00
30463;BME280;17256;43.618;25.336;2023-06-26T13:13:16;100065.50;;;25.47;100.00
30463;BME280;17256;43.618;25.336;2023-06-26T13:27:29;100126.09;;;25.39;100.00
30463;BME280;17256;43.618;25.336;2023-06-26T13:36:49;100333.44;;;27.86;100.00
30463;BME280;17256;43.618;25.336;2023-06-26T13:39:14;100267.03;;;27.88;98.51
30463;BME280;17256;43.618;25.336;2023-06-26T13:41:40;100227.91;;;27.96;100.00
30463;BME280;17256;43.618;25.336;2023-06-26T13:44:05;100291.47;;;28.55;92.39
30463;BME280;17256;43.618;25.336;2023-06-26T13:46:31;100220.56;;;27.86;95.67
30463;BME280;17256;43.618;25.336;2023-06-26T13:48:57;100213.13;;;27.45;100.00
30463;BME280;17256;43.618;25.336;2023-06-26T13:51:22;100228.56;;;27.25;99.64
30463;BME280;17256;43.618;25.336;2023-06-26T13:53:48;100243.97;;;27.42;100.00
30463;BME280;17256;43.618;25.336;2023-06-26T13:56:13;100169.19;;;27.22;100.00
30463;BME280;17256;43.618;25.336;2023-06-26T13:58:39;100321.06;;;28.58;97.98
30463;BME280;17256;43.618;25.336;2023-06-26T14:01:04;100266.75;;;28.69;87.30
30463;BME280;17256;43.618;25.336;2023-06-26T14:03:30;100197.03;;;28.30;87.18
30463;BME280;17256;43.618;25.336;2023-06-26T14:05:56;100258.00;;;28.88;87.73
30463;BME280;17256;43.618;25.336;2023-06-26T14:08:21;100220.69;;;28.60;92.19
30463;BME280;17256;43.618;25.336;2023-06-26T14:10:47;100201.22;;;28.50;88.30
30463;BME280;17256;43.618;25.336;2023-06-26T14:13:12;100312.47;;;29.28;86.92
30463;BME280;17256;43.618;25.336;2023-06-26T14:15:41;100260.03;;;28.48;90.34
30463;BME280;17256;43.618;25.336;2023-06-26T14:18:07;100240.09;;;28.05;92.85
30463;BME280;17256;43.618;25.336;2023-06-26T14:20:33;100268.97;;;28.33;92.96
30463;BME280;17256;43.618;25.336;2023-06-26T14:23:00;100211.69;;;28.01;89.02
30463;BME280;17256;43.618;25.336;2023-06-26T14:25:25;100237.81;;;28.24;85.87
30463;BME280;17256;43.618;25.336;2023-06-26T14:27:59;100221.13;;;28.36;85.98
30463;BME280;17256;43.618;25.336;2023-06-26T14:30:25;100132.94;;;27.91;84.94
30463;BME280;17256;43.618;25.336;2023-06-26T14:32:50;100123.47;;;27.96;82.61
30463;BME280;17256;43.618;25.336;2023-06-26T14:35:16;100237.66;;;28.60;81.64
30463;BME280;17256;43.618;25.336;2023-06-26T14:37:42;100201.59;;;28.57;83.55
30463;BME280;17256;43.618;25.336;2023-06-26T14:40:09;100186.63;;;28.65;81.08
30463;BME280;17256;43.618;25.336;2023-06-26T14:42:35;100298.31;;;29.37;79.12
30463;BME280;17256;43.618;25.336;2023-06-26T14:45:01;100271.69;;;29.03;78.25
30463;BME280;17256;43.618;25.336;2023-06-26T14:47:26;100189.25;;;28.36;76.23
30463;BME280;17256;43.618;25.336;2023-06-26T14:49:52;100087.72;;;27.74;74.63
30463;BME280;17256;43.618;25.336;2023-06-26T14:52:17;100316.94;;;29.38;75.10
30463;BME280;17256;43.618;25.336;2023-06-26T14:54:43;100200.25;;;28.72;74.70
30463;BME280;17256;43.618;25.336;2023-06-26T14:57:09;100254.34;;;28.88;76.26
30463;BME280;17256;43.618;25.336;2023-06-26T14:59:34;100038.91;;;27.34;77.11
30463;BME280;17256;43.618;25.336;2023-06-26T15:02:00;100183.59;;;28.36;77.80
30463;BME280;17256;43.618;25.336;2023-06-26T15:04:26;100299.94;;;29.21;78.34
30463;BME280;17256;43.618;25.336;2023-06-26T15:06:52;100179.00;;;28.17;78.75
30463;BME280;17256;43.618;25.336;2023-06-26T15:09:18;100193.91;;;28.40;78.73
30463;BME280;17256;43.618;25.336;2023-06-26T15:11:43;100237.06;;;28.89;77.22
30463;BME280;17256;43.618;25.336;2023-06-26T15:14:09;100226.09;;;28.96;78.27
30463;BME280;17256;43.618;25.336;2023-06-26T15:16:35;100214.63;;;29.10;76.69
30463;BME280;17256;43.618;25.336;2023-06-26T15:19:00;100287.34;;;29.61;75.21
30463;BME280;17256;43.618;25.336;2023-06-26T15:21:26;100303.47;;;29.69;75.31
30463;BME280;17256;43.618;25.336;2023-06-26T15:23:52;100250.53;;;29.44;72.13
30463;BME280;17256;43.618;25.336;2023-06-26T15:26:17;100207.63;;;28.99;74.31
30463;BME280;17256;43.618;25.336;2023-06-26T15:28:43;100306.13;;;29.40;76.35